Time;durP1;ratioP1;P1;durP2;ratioP2;P2;SDS_P1;SDS_P2;PMS_P1;PMS_P2;Temp;Humidity;BMP_temperature;BMP_pressure;BME280_temperature;BME280_humidity;BME280_pressure;Samples;Min_cycle;Max_cycle;Signal;HPM_P1;HPM_P2
2022/04/07 00:00:48;;;;;;;4.87;4.50;;;;;;;22.61;28.74;94176.44;6058651;28;103696;-61
2022/04/07 00:03:50;;;;;;;5.20;4.80;;;;;;;22.63;28.86;94173.44;6062115;28;103050;-60
2022/04/07 00:06:52;;;;;;;5.17;4.77;;;;;;;22.62;28.51;94169.22;6044346;28;103327;-60
2022/04/07 00:09:54;;;;;;;5.23;4.83;;;;;;;22.62;28.45;94156.66;6060437;28;104499;-60
2022/04/07 00:12:56;;;;;;;5.07;4.77;;;;;;;22.61;28.21;94152.44;6060490;28;103308;-61
2022/04/07 00:16:00;;;;;;;5.40;5.00;;;;;;;22.59;28.32;94146.66;6036309;28;104310;-61
2022/04/07 00:19:01;;;;;;;5.07;4.57;;;;;;;22.64;28.28;94149.09;6027825;28;104243;-60
2022/04/07 00:22:04;;;;;;;4.83;4.43;;;;;;;22.62;28.72;94151.31;6018247;28;103627;-60
2022/04/07 00:25:06;;;;;;;4.63;4.33;;;;;;;22.60;28.50;94148.22;6033792;28;103228;-60
2022/04/07 00:28:07;;;;;;;4.80;4.30;;;;;;;22.60;28.63;94142.88;6016022;28;103443;-61
2022/04/07 00:31:11;;;;;;;4.17;3.93;;;;;;;22.56;28.49;94128.63;6024560;28;104250;-60
2022/04/07 00:34:13;;;;;;;4.90;4.57;;;;;;;22.59;28.46;94130.66;6037229;28;104206;-61
2022/04/07 00:37:16;;;;;;;5.00;4.50;;;;;;;22.58;28.89;94113.09;6031099;28;103527;-60
2022/04/07 00:40:18;;;;;;;5.20;4.80;;;;;;;22.56;29.07;94120.63;6033524;28;102917;-60
2022/04/07 00:43:31;;;;;;;5.23;4.80;;;;;;;22.56;29.02;94125.97;6032754;28;102936;-60
2022/04/07 00:46:32;;;;;;;5.30;4.90;;;;;;;22.58;28.64;94129.09;6029018;28;103676;-60
2022/04/07 00:49:34;;;;;;;5.40;4.80;;;;;;;22.57;28.43;94124.09;6036770;28;103053;-60
2022/04/07 00:52:39;;;;;;;4.90;4.50;;;;;;;22.57;28.52;94114.22;6009499;28;104252;-60
2022/04/07 00:55:42;;;;;;;5.47;4.97;;;;;;;22.57;28.48;94108.09;6037926;28;105099;-61
2022/04/07 00:58:48;;;;;;;4.80;4.40;;;;;;;22.57;28.90;94100.88;6038721;28;103052;-60
2022/04/07 01:01:50;;;;;;;5.03;4.63;;;;;;;22.55;28.48;94092.41;6031008;28;103100;-61
2022/04/07 01:04:52;;;;;;;6.87;4.80;;;;;;;22.55;28.41;94097.75;6009301;28;104078;-59
2022/04/07 01:07:54;;;;;;;4.80;4.33;;;;;;;22.55;28.83;94099.63;6035613;28;104199;-60
2022/04/07 01:10:56;;;;;;;4.53;4.20;;;;;;;22.54;28.65;94095.41;6036085;28;103036;-61
2022/04/07 01:13:58;;;;;;;5.47;5.03;;;;;;;22.56;28.83;94091.28;6041456;28;103927;-60
2022/04/07 01:17:00;;;;;;;5.00;4.60;;;;;;;22.56;28.62;94082.53;6055379;28;103535;-61
2022/04/07 01:20:04;;;;;;;4.60;4.27;;;;;;;22.54;28.83;94060.75;6048123;28;104224;-60
2022/04/07 01:23:07;;;;;;;5.13;4.73;;;;;;;22.55;28.80;94054.31;6039491;28;103321;-61
2022/04/07 01:26:10;;;;;;;4.60;4.20;;;;;;;22.55;28.66;94055.09;6055404;28;103202;-61
2022/04/07 01:29:19;;;;;;;5.13;4.73;;;;;;;22.52;28.39;94045.09;6060544;28;104040;-61
2022/04/07 01:32:37;;;;;;;4.70;4.30;;;;;;;22.50;28.65;94057.94;6052673;28;104212;-61
2022/04/07 01:35:39;;;;;;;4.83;4.43;;;;;;;22.47;28.59;94042.63;6050281;28;103621;-60
2022/04/07 01:38:41;;;;;;;4.63;4.33;;;;;;;22.50;28.43;94023.28;6053910;28;104035;-60
2022/04/07 01:41:43;;;;;;;4.37;4.07;;;;;;;22.46;28.42;94010.97;6058866;28;103139;-60
2022/04/07 01:44:49;;;;;;;5.37;4.87;;;;;;;22.48;28.64;94012.19;6061253;28;103743;-60
2022/04/07 01:47:53;;;;;;;5.33;4.93;;;;;;;22.48;28.55;94001.53;6060593;28;103441;-60
2022/04/07 01:50:56;;;;;;;5.20;4.70;;;;;;;22.48;28.84;94003.41;6014962;28;103126;-60
2022/04/07 01:53:58;;;;;;;4.50;4.20;;;;;;;22.46;29.22;94000.31;6035782;28;103437;-61
2022/04/07 01:57:00;;;;;;;4.90;4.50;;;;;;;22.47;28.55;93983.97;6051018;28;104328;-61
2022/04/07 02:00:04;;;;;;;4.67;4.27;;;;;;;22.49;28.46;93984.41;6049978;28;103429;-60
2022/04/07 02:03:08;;;;;;;4.07;3.77;;;;;;;22.46;28.72;93990.41;6035954;28;103862;-61
2022/04/07 02:06:19;;;;;;;3.93;3.63;;;;;;;22.48;28.54;93990.84;6037582;28;104161;-61
2022/04/07 02:09:20;;;;;;;4.90;4.50;;;;;;;22.48;28.87;93969.53;6036831;28;104137;-61
2022/04/07 02:12:23;;;;;;;4.80;4.50;;;;;;;22.47;28.79;93969.88;6042845;28;104072;-61
2022/04/07 02:15:26;;;;;;;4.70;4.40;;;;;;;22.47;28.81;93967.97;6059744;28;103851;-61
2022/04/07 02:18:28;;;;;;;4.40;4.00;;;;;;;22.46;28.64;93971.75;6056092;28;103171;-61
2022/04/07 02:21:29;;;;;;;4.13;3.83;;;;;;;22.46;28.62;93961.09;6051234;28;103581;-62
2022/04/07 02:24:31;;;;;;;3.83;3.53;;;;;;;22.45;28.88;93956.09;6045423;28;103235;-61
2022/04/07 02:27:36;;;;;;;4.10;3.80;;;;;;;22.42;28.99;93945.00;6063808;28;103180;-62
2022/04/07 02:30:39;;;;;;;4.10;3.80;;;;;;;22.47;28.65;93945.88;6058974;28;103694;-60
2022/04/07 02:33:41;;;;;;;4.00;3.70;;;;;;;22.46;28.88;93944.31;6044623;28;103437;-60
2022/04/07 02:36:42;;;;;;;4.20;3.80;;;;;;;22.45;29.02;93954.19;6054244;28;103107;-61
2022/04/07 02:39:44;;;;;;;4.20;3.90;;;;;;;22.44;28.96;93949.97;6063890;28;103147;-61
2022/04/07 02:42:46;;;;;;;4.10;3.70;;;;;;;22.42;28.91;93955.66;6060562;28;103637;-61
2022/04/07 02:45:48;;;;;;;4.50;4.10;;;;;;;22.44;28.94;93931.31;6044619;28;103267;-62
2022/04/07 02:48:49;;;;;;;4.30;3.90;;;;;;;22.43;28.46;93919.09;6053872;28;103214;-60
2022/04/07 02:51:51;;;;;;;4.43;4.10;;;;;;;22.42;28.75;93928.22;6054454;28;104540;-60
2022/04/07 02:54:53;;;;;;;3.80;3.50;;;;;;;22.41;28.42;93927.44;6046672;28;104002;-61
2022/04/07 02:57:59;;;;;;;4.13;3.83;;;;;;;22.40;28.86;93925.88;6055613;28;103005;-61
2022/04/07 03:01:01;;;;;;;4.07;3.77;;;;;;;22.38;28.61;93916.69;6052976;28;104297;-61
2022/04/07 03:04:02;;;;;;;4.10;3.80;;;;;;;22.35;28.98;93901.38;6049950;28;104412;-62
2022/04/07 03:07:04;;;;;;;4.37;4.00;;;;;;;22.38;28.84;93906.78;6062239;28;104030;-61
2022/04/07 03:10:06;;;;;;;4.13;3.73;;;;;;;22.35;28.70;93883.47;6044586;28;103148;-61
2022/04/07 03:13:08;;;;;;;3.87;3.57;;;;;;;22.36;28.65;93866.38;6032546;28;104078;-61
2022/04/07 03:16:10;;;;;;;3.90;3.60;;;;;;;22.37;29.04;93878.59;6044376;28;103457;-60
2022/04/07 03:19:12;;;;;;;4.20;3.90;;;;;;;22.38;28.91;93874.03;6056287;28;103193;-60
2022/04/07 03:22:15;;;;;;;11.80;3.60;;;;;;;22.36;29.03;93871.72;6056188;28;104246;-60
2022/04/07 03:25:17;;;;;;;4.33;3.80;;;;;;;22.42;28.91;93882.91;6035520;28;104266;-61
2022/04/07 03:28:19;;;;;;;3.83;3.53;;;;;;;22.41;28.93;93886.69;6029136;28;103313;-61
2022/04/07 03:31:21;;;;;;;4.30;3.90;;;;;;;22.40;29.44;93887.81;6039576;28;103066;-61
2022/04/07 03:34:23;;;;;;;3.57;3.27;;;;;;;22.39;29.30;93880.91;6042894;28;105039;-61
2022/04/07 03:37:24;;;;;;;3.60;3.33;;;;;;;22.39;29.22;93872.91;6054200;28;106974;-60
2022/04/07 03:40:26;;;;;;;4.70;4.30;;;;;;;22.39;29.27;93848.94;6060686;28;102975;-61
2022/04/07 03:43:28;;;;;;;6.83;4.00;;;;;;;22.37;29.94;93833.28;6033207;28;104934;-60
2022/04/07 03:46:30;;;;;;;4.50;3.87;;;;;;;22.37;29.85;93825.28;6046369;28;103264;-65
2022/04/07 03:49:32;;;;;;;4.73;4.33;;;;;;;22.37;31.21;93829.84;6058953;28;103063;-64
2022/04/07 03:52:33;;;;;;;7.87;5.20;;;;;;;22.32;29.24;93830.03;6049613;28;103469;-64
2022/04/07 03:55:35;;;;;;;4.47;4.07;;;;;;;22.24;29.49;93822.97;6034526;28;102838;-65
2022/04/07 03:58:38;;;;;;;4.80;4.43;;;;;;;22.26;29.98;93815.41;6051657;28;104889;-63
2022/04/07 04:01:40;;;;;;;5.27;4.30;;;;;;;22.16;29.21;93791.88;6039501;28;103224;-64
2022/04/07 04:04:42;;;;;;;6.40;4.57;;;;;;;22.16;29.89;93791.88;6009599;28;104131;-62
2022/04/07 04:07:44;;;;;;;5.20;4.80;;;;;;;22.18;29.72;93803.78;6038660;28;103966;-62
2022/04/07 04:10:46;;;;;;;5.57;4.13;;;;;;;22.20;29.38;93803.44;6027667;28;103452;-61
2022/04/07 04:13:48;;;;;;;4.50;3.97;;;;;;;22.17;29.67;93798.75;6037870;28;104257;-64
2022/04/07 04:16:49;;;;;;;4.40;4.07;;;;;;;22.13;31.06;93817.31;6031073;28;103107;-63
2022/04/07 04:19:51;;;;;;;5.00;3.67;;;;;;;22.29;29.23;93817.41;6031385;28;104050;-62
2022/04/07 04:22:53;;;;;;;6.07;4.30;;;;;;;22.35;29.67;93821.41;6034681;28;103996;-62
2022/04/07 04:25:55;;;;;;;6.10;4.23;;;;;;;22.38;29.72;93810.06;6035548;28;103336;-63
2022/04/07 04:28:56;;;;;;;5.60;4.00;;;;;;;22.33;29.68;93816.38;6034884;28;103530;-65
2022/04/07 04:31:58;;;;;;;7.70;4.67;;;;;;;22.36;29.28;93822.97;6031621;28;102996;-64
2022/04/07 04:35:00;;;;;;;5.67;4.23;;;;;;;22.33;29.70;93834.25;6036611;28;103012;-65
2022/04/07 04:38:02;;;;;;;4.70;4.07;;;;;;;22.35;29.39;93832.06;6048458;28;102944;-66
2022/04/07 04:41:03;;;;;;;5.23;4.40;;;;;;;22.35;29.28;93816.06;6045824;28;102793;-64
2022/04/07 04:44:05;;;;;;;8.37;3.87;;;;;;;22.39;29.90;93811.63;6046217;28;104072;-61
2022/04/07 04:47:07;;;;;;;4.70;4.27;;;;;;;22.32;29.79;93809.50;6061902;28;103032;-64
2022/04/07 04:50:12;;;;;;;4.57;4.17;;;;;;;22.17;29.72;93794.22;6042499;28;105823;-64
2022/04/07 04:53:14;;;;;;;5.50;4.10;;;;;;;22.17;29.92;93815.53;6009473;28;103366;-62
2022/04/07 04:56:16;;;;;;;6.30;3.67;;;;;;;22.19;30.03;93821.31;6014170;29;103217;-62
2022/04/07 04:59:18;;;;;;;6.37;4.13;;;;;;;22.23;29.84;93816.09;6015232;29;103434;-61
2022/04/07 05:02:19;;;;;;;4.10;3.60;;;;;;;22.22;29.76;93804.66;6015408;28;103064;-60
2022/04/07 05:05:23;;;;;;;4.33;3.93;;;;;;;22.24;30.51;93825.63;6008929;29;103170;-61
2022/04/07 05:08:25;;;;;;;8.63;3.77;;;;;;;22.24;30.08;93820.31;6015620;29;103438;-60
2022/04/07 05:11:27;;;;;;;4.47;3.77;;;;;;;22.28;29.69;93826.50;6014723;29;104459;-60
2022/04/07 05:14:28;;;;;;;4.27;3.87;;;;;;;22.21;30.07;93810.31;6009569;29;104278;-62
2022/04/07 05:17:30;;;;;;;5.47;3.70;;;;;;;22.23;29.95;93816.88;6014275;29;103264;-61
2022/04/07 05:20:32;;;;;;;4.30;3.90;;;;;;;22.24;30.24;93820.31;6014476;29;104091;-61
2022/04/07 05:23:33;;;;;;;4.13;3.50;;;;;;;22.21;29.81;93799.66;6015307;29;104238;-61
2022/04/07 05:26:35;;;;;;;4.07;3.67;;;;;;;22.26;29.94;93807.41;6009058;28;103163;-61
2022/04/07 05:29:37;;;;;;;3.53;3.33;;;;;;;22.24;29.86;93791.78;6014683;29;104401;-62
2022/04/07 05:32:39;;;;;;;5.70;4.10;;;;;;;22.23;29.97;93786.78;6014094;29;103074;-61
2022/04/07 05:35:41;;;;;;;3.70;3.43;;;;;;;22.25;30.11;93806.66;6014154;29;103235;-62
2022/04/07 05:38:43;;;;;;;4.20;3.83;;;;;;;22.18;29.98;93811.78;6029133;28;103909;-63
2022/04/07 05:41:45;;;;;;;4.23;3.80;;;;;;;22.24;30.04;93810.41;6061232;28;103991;-65
2022/04/07 05:44:48;;;;;;;4.13;3.83;;;;;;;22.30;30.09;93805.63;6061568;28;103124;-67
2022/04/07 05:47:49;;;;;;;9.03;4.17;;;;;;;22.34;30.10;93787.84;6055723;28;103320;-66
2022/04/07 05:50:51;;;;;;;5.03;3.80;;;;;;;22.36;31.45;93786.41;6060878;28;102984;-63
2022/04/07 05:53:53;;;;;;;5.90;4.37;;;;;;;22.36;31.93;93761.66;6061299;28;103270;-67
2022/04/07 05:56:55;;;;;;;10.40;4.03;;;;;;;22.52;31.55;93777.69;6061321;28;103017;-67
2022/04/07 06:00:12;;;;;;;5.57;3.77;;;;;;;22.48;31.18;93776.81;6057237;28;103123;-67
2022/04/07 06:03:13;;;;;;;5.60;4.07;;;;;;;22.42;31.33;93766.41;6065042;28;103173;-67
2022/04/07 06:06:15;;;;;;;5.40;4.27;;;;;;;22.45;31.59;93746.28;6065014;28;104245;-64
2022/04/07 06:09:17;;;;;;;5.33;3.90;;;;;;;22.56;32.20;93749.25;6047865;28;103277;-63
2022/04/07 06:12:19;;;;;;;4.60;4.17;;;;;;;22.56;31.36;93742.03;6060920;28;103130;-66
2022/04/07 06:15:21;;;;;;;8.23;4.23;;;;;;;22.54;31.36;93728.25;6064753;28;104709;-65
2022/04/07 06:18:23;;;;;;;7.70;4.60;;;;;;;22.55;31.89;93743.13;6065197;28;103375;-65
2022/04/07 06:21:25;;;;;;;6.90;4.70;;;;;;;22.65;32.35;93745.31;6059255;28;103322;-62
2022/04/07 06:24:27;;;;;;;8.77;5.17;;;;;;;22.65;33.28;93733.88;6044278;28;104305;-63
2022/04/07 06:27:43;;;;;;;9.43;5.40;;;;;;;22.72;33.45;93739.41;6041911;28;104282;-66
2022/04/07 06:30:45;;;;;;;10.33;6.00;;;;;;;22.73;33.45;93738.31;6041788;28;104050;-64
2022/04/07 06:33:46;;;;;;;6.00;5.40;;;;;;;22.74;33.72;93745.19;6036106;28;103059;-64
2022/04/07 06:37:08;;;;;;;11.00;6.60;;;;;;;22.72;32.82;93746.66;6041279;28;104000;-65
2022/04/07 06:40:11;;;;;;;8.20;6.40;;;;;;;22.75;33.22;93733.41;6061129;28;103216;-65
2022/04/07 06:43:13;;;;;;;8.10;6.50;;;;;;;22.76;33.35;93744.84;6058949;28;103395;-66
2022/04/07 06:46:14;;;;;;;7.50;6.50;;;;;;;22.75;32.97;93736.06;6064807;28;103220;-62
2022/04/07 06:49:16;;;;;;;6.40;5.80;;;;;;;22.77;33.18;93728.50;6064633;28;103538;-65
2022/04/07 06:52:19;;;;;;;7.67;5.80;;;;;;;22.78;32.82;93731.94;6064636;28;103319;-65
2022/04/07 06:55:21;;;;;;;9.93;6.50;;;;;;;22.72;32.97;93735.97;6058548;28;103990;-68
2022/04/07 06:58:23;;;;;;;12.40;6.30;;;;;;;22.64;32.36;93732.34;6064980;28;103951;-68
2022/04/07 07:01:24;;;;;;;11.13;6.43;;;;;;;22.63;32.36;93738.78;6064324;28;103371;-68
2022/04/07 07:04:27;;;;;;;10.73;6.40;;;;;;;22.61;32.71;93733.03;6062777;28;103477;-61
2022/04/07 07:07:28;;;;;;;9.03;6.10;;;;;;;22.62;32.87;93727.34;6058354;28;105910;-66
2022/04/07 07:10:30;;;;;;;7.03;6.33;;;;;;;22.72;32.54;93730.66;6039732;28;103999;-66
2022/04/07 07:13:36;;;;;;;12.40;6.40;;;;;;;22.76;32.42;93718.94;6039549;28;103830;-65
2022/04/07 07:16:38;;;;;;;8.27;6.67;;;;;;;22.79;33.07;93722.81;6034790;28;103178;-63
2022/04/07 07:19:39;;;;;;;9.43;6.10;;;;;;;22.81;32.82;93715.25;6055295;28;102817;-62
2022/04/07 07:22:42;;;;;;;8.60;6.43;;;;;;;22.83;33.29;93719.13;6039987;28;103259;-63
2022/04/07 07:25:44;;;;;;;11.37;6.50;;;;;;;22.84;32.95;93714.56;6040060;28;104226;-64
2022/04/07 07:28:46;;;;;;;9.73;8.53;;;;;;;22.86;33.50;93713.13;6035539;28;104316;-64
2022/04/07 07:31:48;;;;;;;7.97;6.60;;;;;;;22.89;32.96;93701.00;6039962;28;103463;-63
2022/04/07 07:34:50;;;;;;;12.27;6.37;;;;;;;22.87;32.69;93701.34;6040508;28;104029;-67
2022/04/07 07:37:52;;;;;;;13.67;6.50;;;;;;;22.84;32.89;93699.31;6037457;28;104091;-68
2022/04/07 07:40:54;;;;;;;8.80;6.37;;;;;;;22.78;33.13;93698.03;6055225;28;103445;-65
2022/04/07 07:43:56;;;;;;;10.33;6.63;;;;;;;22.81;33.23;93700.03;6049885;28;103004;-60
2022/04/07 07:46:57;;;;;;;8.63;6.03;;;;;;;22.81;32.96;93685.91;6032522;28;103826;-67
2022/04/07 07:50:00;;;;;;;7.57;6.77;;;;;;;22.79;33.11;93669.47;6010951;29;104108;-66
2022/04/07 07:53:02;;;;;;;8.27;5.87;;;;;;;22.77;32.74;93664.50;6016003;29;103069;-65
2022/04/07 07:56:04;;;;;;;11.10;6.40;;;;;;;22.78;32.11;93659.94;6016999;29;104301;-68
2022/04/07 07:59:05;;;;;;;6.40;5.97;;;;;;;22.79;32.86;93674.81;6017211;29;103038;-67
2022/04/07 08:02:07;;;;;;;7.10;6.40;;;;;;;22.82;32.99;93655.44;6010931;29;103400;-66
2022/04/07 08:05:14;;;;;;;7.07;6.37;;;;;;;22.90;33.06;93662.53;6016478;29;103077;-61
2022/04/07 08:08:16;;;;;;;9.20;7.00;;;;;;;22.96;33.11;93661.13;6015923;29;103888;-66
2022/04/07 08:11:18;;;;;;;14.73;8.07;;;;;;;23.02;32.82;93651.78;6011069;29;103436;-64
2022/04/07 08:14:20;;;;;;;10.40;8.03;;;;;;;23.02;33.14;93643.78;6016327;28;103314;-67
2022/04/07 08:17:22;;;;;;;10.47;7.60;;;;;;;23.05;32.87;93640.41;6016251;28;103056;-66
2022/04/07 08:20:23;;;;;;;10.13;8.33;;;;;;;23.14;33.17;93632.97;6016235;29;103171;-66
2022/04/07 08:23:25;;;;;;;9.37;8.47;;;;;;;23.16;32.74;93619.28;6010878;29;105815;-62
2022/04/07 08:26:27;;;;;;;14.40;10.80;;;;;;;23.17;33.47;93626.94;6016172;29;104588;-62
2022/04/07 08:29:28;;;;;;;12.97;9.57;;;;;;;23.20;32.84;93615.59;6016558;29;102929;-66
2022/04/07 08:32:32;;;;;;;11.50;10.40;;;;;;;23.28;32.59;93595.16;6015627;28;103507;-62
2022/04/07 08:35:33;;;;;;;10.77;9.67;;;;;;;23.29;32.62;93597.50;6012711;29;103485;-68
2022/04/07 08:38:35;;;;;;;11.37;9.23;;;;;;;23.28;32.25;93587.94;6045449;28;103022;-63
2022/04/07 08:41:39;;;;;;;8.90;8.00;;;;;;;23.24;31.47;93579.06;6063024;28;103116;-64
2022/04/07 08:44:41;;;;;;;11.07;7.73;;;;;;;23.25;31.39;93590.53;6040284;28;103257;-64
2022/04/07 08:47:47;;;;;;;9.93;8.33;;;;;;;23.25;31.46;93580.63;6062737;28;103061;-62
2022/04/07 08:50:50;;;;;;;10.30;8.30;;;;;;;23.19;31.27;93581.25;6062691;28;103239;-64
2022/04/07 08:53:52;;;;;;;10.00;9.03;;;;;;;23.17;31.45;93581.56;6061735;28;103234;-67
2022/04/07 08:56:54;;;;;;;10.27;9.23;;;;;;;23.15;32.14;93572.38;6053818;28;103484;-67
2022/04/07 08:59:55;;;;;;;10.37;9.40;;;;;;;23.11;31.59;93561.63;6038855;28;103262;-63
2022/04/07 09:02:58;;;;;;;10.43;9.33;;;;;;;23.15;31.55;93569.69;6038982;28;104171;-66
2022/04/07 09:06:06;;;;;;;10.20;9.20;;;;;;;23.17;31.83;93576.22;6033784;28;104174;-68
2022/04/07 09:09:18;;;;;;;8.30;7.60;;;;;;;23.10;31.99;93573.41;6038094;28;103269;-65
2022/04/07 09:12:23;;;;;;;9.00;8.17;;;;;;;23.09;32.04;93571.88;6038739;28;103176;-67
2022/04/07 09:15:27;;;;;;;7.93;7.23;;;;;;;23.06;31.71;93574.47;6037901;28;104023;-68
2022/04/07 09:18:35;;;;;;;9.63;8.00;;;;;;;23.02;31.58;93587.75;6033226;28;103033;-67
2022/04/07 09:21:37;;;;;;;9.07;8.17;;;;;;;22.99;32.07;93586.50;6039027;28;103579;-67
2022/04/07 09:24:41;;;;;;;8.63;7.30;;;;;;;22.93;32.09;93589.81;6038410;28;104331;-67
2022/04/07 09:27:42;;;;;;;7.80;6.60;;;;;;;22.87;32.11;93577.88;6035284;28;103168;-63
2022/04/07 09:30:49;;;;;;;7.20;6.50;;;;;;;22.85;32.12;93580.06;6036482;28;102983;-65
2022/04/07 09:33:56;;;;;;;7.63;6.93;;;;;;;22.83;31.91;93587.66;6038536;28;103357;-66
2022/04/07 09:37:06;;;;;;;7.80;7.00;;;;;;;22.81;32.03;93603.22;6041764;28;102990;-68
2022/04/07 09:40:09;;;;;;;8.70;6.00;;;;;;;22.81;32.49;93608.56;6057255;28;104568;-67
2022/04/07 09:43:11;;;;;;;9.50;6.97;;;;;;;22.78;32.40;93615.38;6066562;28;104168;-67
2022/04/07 09:46:20;;;;;;;6.30;5.77;;;;;;;22.77;32.42;93608.47;6065617;28;104106;-64
2022/04/07 09:49:22;;;;;;;7.83;6.50;;;;;;;22.75;32.11;93615.28;6066090;28;104722;-66
2022/04/07 09:52:24;;;;;;;6.60;6.00;;;;;;;22.69;32.30;93615.56;6060150;28;103524;-64
2022/04/07 09:55:41;;;;;;;7.60;6.80;;;;;;;22.72;32.36;93622.09;6065345;28;103131;-67
2022/04/07 09:58:43;;;;;;;6.73;6.00;;;;;;;22.72;32.28;93639.97;6065903;28;103849;-68
2022/04/07 10:01:48;;;;;;;6.87;5.53;;;;;;;22.70;31.94;93635.75;6060207;28;103816;-67
2022/04/07 10:04:51;;;;;;;6.90;6.20;;;;;;;22.70;32.21;93646.44;6065779;28;103746;-68
2022/04/07 10:07:56;;;;;;;9.13;5.60;;;;;;;22.76;32.68;93652.28;6064956;28;103021;-65
2022/04/07 10:10:59;;;;;;;6.77;5.70;;;;;;;22.79;32.56;93658.81;6065189;28;104578;-66
2022/04/07 10:14:01;;;;;;;6.77;6.17;;;;;;;22.78;32.62;93649.25;6059380;28;103442;-66
2022/04/07 10:17:17;;;;;;;6.63;6.03;;;;;;;22.83;32.47;93657.78;6065516;28;103045;-63
2022/04/07 10:20:20;;;;;;;7.40;5.63;;;;;;;22.85;32.27;93657.44;6066254;28;104020;-65
2022/04/07 10:23:40;;;;;;;7.87;6.77;;;;;;;22.86;32.31;93654.44;6059789;28;103548;-62
2022/04/07 10:26:45;;;;;;;7.57;6.77;;;;;;;22.82;32.90;93645.56;6065209;28;103285;-64
2022/04/07 10:30:11;;;;;;;6.20;5.60;;;;;;;22.86;32.89;93656.34;6065291;28;104483;-67
2022/04/07 10:33:38;;;;;;;5.40;5.00;;;;;;;22.82;33.07;93653.56;6066242;28;104121;-68
2022/04/07 10:36:46;;;;;;;7.03;5.50;;;;;;;22.63;32.40;93624.91;6061332;28;103440;-68
2022/04/07 10:39:50;;;;;;;6.10;5.60;;;;;;;22.72;32.51;93637.31;6046928;28;104122;-68
2022/04/07 10:43:05;;;;;;;8.67;5.80;;;;;;;22.68;32.66;93639.88;6041461;28;103164;-64
2022/04/07 10:46:18;;;;;;;8.80;6.30;;;;;;;22.66;32.58;93632.22;6035837;28;104548;-66
2022/04/07 10:49:24;;;;;;;6.10;5.60;;;;;;;22.64;32.73;93628.34;6041387;28;103085;-69
2022/04/07 10:52:26;;;;;;;7.33;5.80;;;;;;;22.57;32.60;93626.28;6040899;28;102833;-69
2022/04/07 10:56:11;;;;;;;5.77;5.27;;;;;;;22.59;32.35;93629.38;6041180;28;104275;-68
2022/04/07 10:59:27;;;;;;;5.87;5.37;;;;;;;22.60;32.70;93619.50;6037498;28;103294;-67
2022/04/07 11:02:32;;;;;;;6.77;5.23;;;;;;;22.57;32.45;93623.63;6041312;28;103237;-68
2022/04/07 11:05:52;;;;;;;5.97;5.27;;;;;;;22.56;32.86;93624.72;6023821;28;104024;-63
2022/04/07 11:09:14;;;;;;;8.50;6.37;;;;;;;22.61;32.59;93619.16;6036100;28;103319;-62
2022/04/07 11:12:17;;;;;;;6.60;6.10;;;;;;;22.60;32.93;93614.94;6041124;28;103094;-68
2022/04/07 11:15:35;;;;;;;7.27;6.63;;;;;;;22.65;32.51;93624.56;6039096;28;103306;-68
2022/04/07 11:19:02;;;;;;;11.87;10.67;;;;;;;22.64;32.67;93615.78;6032011;28;103275;-66
2022/04/07 11:22:09;;;;;;;9.40;8.60;;;;;;;22.63;32.73;93624.13;6062885;28;103732;-68
2022/04/07 11:25:19;;;;;;;9.40;8.47;;;;;;;22.64;32.57;93621.13;6065818;28;103074;-66
2022/04/07 11:28:22;;;;;;;10.37;9.27;;;;;;;22.62;33.05;93618.03;6051352;28;103435;-65
2022/04/07 11:31:51;;;;;;;10.03;9.17;;;;;;;22.63;32.81;93624.13;6046696;28;103382;-65
2022/04/07 11:34:53;;;;;;;12.53;11.23;;;;;;;22.65;33.12;93628.00;6050657;28;102950;-64
2022/04/07 11:37:56;;;;;;;12.07;10.40;;;;;;;22.65;32.84;93630.66;6054000;28;103250;-67
2022/04/07 11:41:05;;;;;;;11.10;10.20;;;;;;;22.64;32.95;93626.44;6069591;28;103708;-67
2022/04/07 11:44:09;;;;;;;11.97;11.03;;;;;;;22.65;32.86;93632.56;6074252;28;104185;-64
2022/04/07 11:47:23;;;;;;;13.13;11.73;;;;;;;22.62;33.01;93633.25;6073639;28;103180;-67
2022/04/07 11:50:25;;;;;;;13.30;12.10;;;;;;;22.63;33.28;93630.25;6073386;28;102710;-67
2022/04/07 11:53:27;;;;;;;15.53;14.13;;;;;;;22.63;32.91;93630.25;6069050;28;103435;-66
2022/04/07 11:56:32;;;;;;;14.13;12.83;;;;;;;22.65;32.73;93620.00;6074595;28;103161;-66
2022/04/07 11:59:37;;;;;;;15.73;14.00;;;;;;;22.66;32.97;93618.88;6074017;28;102646;-65
2022/04/07 12:02:39;;;;;;;15.27;13.67;;;;;;;22.65;32.73;93606.66;6068982;28;102932;-65
2022/04/07 12:05:43;;;;;;;15.50;14.13;;;;;;;22.65;33.09;93601.34;6074295;28;103205;-63
2022/04/07 12:08:45;;;;;;;15.83;14.30;;;;;;;22.66;33.03;93597.56;6074741;28;103134;-67
2022/04/07 12:11:47;;;;;;;15.77;14.37;;;;;;;22.66;33.24;93594.88;6089219;28;102872;-65
2022/04/07 12:14:50;;;;;;;16.10;14.80;;;;;;;22.66;33.19;93586.13;6042816;28;102813;-66
2022/04/07 12:18:08;;;;;;;16.00;14.70;;;;;;;22.66;33.44;93581.56;6050022;28;103044;-67
2022/04/07 12:21:10;;;;;;;17.33;15.83;;;;;;;22.67;33.13;93579.66;6050002;28;102822;-68
2022/04/07 12:24:13;;;;;;;17.93;16.40;;;;;;;22.68;33.09;93587.34;6045754;28;103482;-62
2022/04/07 12:27:30;;;;;;;16.43;15.13;;;;;;;22.69;33.51;93574.78;6050231;28;103070;-68
2022/04/07 12:30:43;;;;;;;16.97;15.40;;;;;;;22.67;33.68;93569.75;6050811;28;104142;-67
2022/04/07 12:33:48;;;;;;;17.00;15.60;;;;;;;22.69;33.33;93569.44;6050427;28;103194;-66
2022/04/07 12:36:51;;;;;;;17.57;16.10;;;;;;;22.66;33.53;93565.56;6045003;28;103429;-68
2022/04/07 12:39:59;;;;;;;18.53;16.83;;;;;;;22.69;33.79;93575.56;6030793;28;103450;-66
2022/04/07 12:43:01;;;;;;;16.73;15.33;;;;;;;22.72;33.71;93565.31;6025758;28;103095;-68
2022/04/07 12:46:04;;;;;;;17.30;15.90;;;;;;;22.73;33.20;93558.84;6022447;29;104142;-65
2022/04/07 12:49:06;;;;;;;17.13;15.37;;;;;;;22.73;33.53;93548.19;6025022;28;102987;-63
2022/04/07 12:52:14;;;;;;;17.50;16.00;;;;;;;22.73;33.20;93538.28;6026484;28;104507;-67
2022/04/07 12:55:17;;;;;;;16.97;15.57;;;;;;;22.74;33.74;93552.41;6026437;28;105647;-65
2022/04/07 12:58:26;;;;;;;17.73;16.17;;;;;;;22.72;33.59;93538.66;6020604;28;102816;-65
2022/04/07 13:01:29;;;;;;;17.70;16.20;;;;;;;22.73;33.54;93538.28;6026288;28;104214;-66
2022/04/07 13:04:47;;;;;;;17.20;15.80;;;;;;;22.75;33.41;93532.63;6026392;28;103036;-67
2022/04/07 13:07:50;;;;;;;16.50;15.27;;;;;;;22.75;33.23;93521.94;6023031;29;104340;-60
2022/04/07 13:10:52;;;;;;;16.70;15.40;;;;;;;22.74;33.84;93517.75;6022292;28;103424;-68
2022/04/07 13:13:54;;;;;;;17.63;15.93;;;;;;;22.70;33.55;93517.66;6030887;28;102897;-67
2022/04/07 13:16:56;;;;;;;18.17;16.77;;;;;;;22.73;33.24;93516.97;6049228;28;102753;-66
2022/04/07 13:19:58;;;;;;;18.17;16.50;;;;;;;22.76;33.56;93510.94;6042387;28;104341;-65
2022/04/07 13:23:00;;;;;;;18.17;16.60;;;;;;;22.79;33.41;93517.47;6049483;28;103047;-64
2022/04/07 13:26:02;;;;;;;19.17;17.60;;;;;;;22.79;33.95;93517.47;6049466;28;103409;-65
2022/04/07 13:29:03;;;;;;;19.63;17.83;;;;;;;22.80;33.88;93511.00;6049489;28;103370;-68
2022/04/07 13:32:05;;;;;;;20.53;18.80;;;;;;;22.78;33.91;93502.59;6044157;28;103039;-66
2022/04/07 13:35:08;;;;;;;19.03;17.53;;;;;;;22.74;33.67;93499.84;6032641;28;105547;-66
2022/04/07 13:38:10;;;;;;;20.20;18.50;;;;;;;22.75;33.62;93492.63;6054206;28;102924;-67
2022/04/07 13:41:13;;;;;;;20.93;19.13;;;;;;;22.75;33.62;93497.94;6068374;28;104253;-67
2022/04/07 13:44:15;;;;;;;19.97;18.27;;;;;;;22.74;33.54;93496.41;6072130;28;103021;-65
2022/04/07 13:47:16;;;;;;;20.67;18.90;;;;;;;22.72;33.82;93491.41;6072446;28;103381;-67
2022/04/07 13:50:18;;;;;;;18.80;17.10;;;;;;;22.73;33.48;93486.84;6071378;28;102747;-67
2022/04/07 13:53:20;;;;;;;18.90;17.00;;;;;;;22.64;33.53;93482.47;6045189;28;103369;-67
2022/04/07 13:56:22;;;;;;;15.77;14.30;;;;;;;22.59;33.68;93490.75;6012576;29;103472;-66
2022/04/07 13:59:24;;;;;;;13.70;11.80;;;;;;;22.59;33.80;93488.06;6014383;28;103417;-67
2022/04/07 14:02:26;;;;;;;17.50;11.20;;;;;;;22.55;34.15;93489.09;6014775;29;104012;-67
2022/04/07 14:05:28;;;;;;;11.70;10.50;;;;;;;22.56;33.65;93482.66;6008901;29;103450;-67
2022/04/07 14:08:30;;;;;;;10.40;9.40;;;;;;;22.53;34.09;93484.13;6014130;29;103071;-66
2022/04/07 14:11:32;;;;;;;13.80;9.43;;;;;;;22.53;34.12;93486.78;6014066;29;103967;-66